createdAt,value
2019-05-21T00:00:03.317Z,99.20
2019-05-21T00:02:29.543Z,99.30
2019-05-21T00:04:55.808Z,99.40
2019-05-21T00:07:22.393Z,99.40
2019-05-21T00:09:55.820Z,99.30
2019-05-21T00:12:23.172Z,99.40
2019-05-21T00:14:49.387Z,99.30
2019-05-21T00:17:15.699Z,99.40
2019-05-21T00:19:41.959Z,99.30
2019-05-21T00:22:10.875Z,99.30
2019-05-21T00:24:37.540Z,99.40
2019-05-21T00:27:03.787Z,99.30
2019-05-21T00:30:26.604Z,99.40
2019-05-21T00:33:49.231Z,99.30
2019-05-21T00:37:13.858Z,99.20
2019-05-21T00:40:36.294Z,99.30
2019-05-21T00:43:03.249Z,99.40
2019-05-21T00:45:29.545Z,99.40
2019-05-21T00:47:55.829Z,99.40
2019-05-21T00:50:22.094Z,99.50
2019-05-21T00:52:48.328Z,99.50
2019-05-21T00:55:14.592Z,99.70
2019-05-21T00:57:40.827Z,99.50
2019-05-21T01:00:07.663Z,99.50
2019-05-21T01:02:34.166Z,99.60
2019-05-21T01:05:01.574Z,99.60
2019-05-21T01:07:28.195Z,99.40
2019-05-21T01:09:54.423Z,99.40
2019-05-21T01:12:20.648Z,99.40
2019-05-21T01:14:46.906Z,99.40
2019-05-21T01:17:13.138Z,99.40
2019-05-21T01:19:39.384Z,99.40
2019-05-21T01:22:05.758Z,99.40
2019-05-21T01:24:31.993Z,99.40
2019-05-21T01:26:58.219Z,99.50
2019-05-21T01:29:24.565Z,99.50
2019-05-21T01:31:50.795Z,99.50
2019-05-21T01:34:17.323Z,99.50
2019-05-21T01:36:43.555Z,99.50
2019-05-21T01:39:09.853Z,99.40
2019-05-21T01:41:36.092Z,99.50
2019-05-21T01:44:03.103Z,99.60
2019-05-21T01:46:29.337Z,99.60
2019-05-21T01:48:55.662Z,99.70
2019-05-21T01:51:21.887Z,99.70
2019-05-21T01:53:48.378Z,99.70
2019-05-21T01:56:14.730Z,99.60
2019-05-21T01:58:40.989Z,99.60
2019-05-21T02:01:07.219Z,99.70
2019-05-21T02:03:33.466Z,99.60
2019-05-21T02:05:59.707Z,99.60
2019-05-21T02:08:25.944Z,99.50
2019-05-21T02:10:52.211Z,99.40
2019-05-21T02:13:18.469Z,99.50
2019-05-21T02:15:44.710Z,99.40
2019-05-21T02:18:10.932Z,99.40
2019-05-21T02:20:37.172Z,99.60
2019-05-21T02:23:03.412Z,99.30
2019-05-21T02:25:29.649Z,99.30
2019-05-21T02:27:55.879Z,99.40
2019-05-21T02:30:22.265Z,99.50
2019-05-21T02:32:48.454Z,99.30
2019-05-21T02:35:15.194Z,99.30
2019-05-21T02:37:41.455Z,99.50
2019-05-21T02:40:08.864Z,99.30
2019-05-21T02:42:35.438Z,99.20
2019-05-21T02:45:02.794Z,99.10
2019-05-21T02:47:29.155Z,99.10
2019-05-21T02:49:55.395Z,99.20
2019-05-21T02:52:21.627Z,99.30
2019-05-21T02:54:47.861Z,99.40
2019-05-21T02:57:14.185Z,99.30
2019-05-21T02:59:42.217Z,99.20
2019-05-21T03:02:27.286Z,99.30
2019-05-21T03:04:53.544Z,99.50
2019-05-21T03:07:19.899Z,99.40
2019-05-21T03:09:47.352Z,99.40
2019-05-21T03:12:14.958Z,99.20
2019-05-21T03:14:41.188Z,99.10
2019-05-21T03:17:07.827Z,99.20
2019-05-21T03:19:34.046Z,99.10
2019-05-21T03:22:00.309Z,99.20
2019-05-21T03:24:26.533Z,99.20
2019-05-21T03:26:52.776Z,99.10
2019-05-21T03:29:18.996Z,99.10
2019-05-21T03:31:45.226Z,99.10
2019-05-21T03:34:11.441Z,99.20
2019-05-21T03:36:37.658Z,99.20
2019-05-21T03:39:04.452Z,99.30
2019-05-21T03:41:30.770Z,99.30
2019-05-21T03:43:57.048Z,99.30
2019-05-21T03:46:23.278Z,99.30
2019-05-21T03:48:49.535Z,99.30
2019-05-21T03:51:16.742Z,99.20
2019-05-21T03:53:42.984Z,99.20
2019-05-21T03:56:09.251Z,99.10
2019-05-21T03:58:35.490Z,99.20
2019-05-21T04:01:02.217Z,99.10
2019-05-21T04:03:28.452Z,99.10
2019-05-21T04:05:54.679Z,99.10
2019-05-21T04:08:21.007Z,99.10
2019-05-21T04:10:47.265Z,99.20
2019-05-21T04:13:13.508Z,99.40
2019-05-21T04:15:58.823Z,99.20
2019-05-21T04:18:26.946Z,99.30
2019-05-21T04:20:53.369Z,99.40
2019-05-21T04:23:19.593Z,99.70
2019-05-21T04:25:45.810Z,99.80
2019-05-21T04:28:12.059Z,99.90
2019-05-21T04:30:38.330Z,99.80
2019-05-21T04:33:04.818Z,99.60
2019-05-21T04:35:37.163Z,99.30
2019-05-21T04:38:09.754Z,99.20
2019-05-21T04:40:35.987Z,99.10
2019-05-21T04:43:02.725Z,99.20
2019-05-21T04:45:29.481Z,99.20
2019-05-21T04:47:55.741Z,99.10
2019-05-21T04:50:21.993Z,99.10
2019-05-21T04:52:48.213Z,99.20
2019-05-21T04:55:14.691Z,99.20
2019-05-21T04:57:40.936Z,99.20
2019-05-21T05:00:07.773Z,99.20
2019-05-21T05:02:34.014Z,99.10
2019-05-21T05:05:00.380Z,99.20
2019-05-21T05:07:28.837Z,99.10
2019-05-21T05:09:55.481Z,99.20
2019-05-21T05:12:21.708Z,99.20
2019-05-21T05:14:48.237Z,99.30
2019-05-21T05:17:18.074Z,99.00
2019-05-21T05:19:44.702Z,99.20
2019-05-21T05:22:10.962Z,99.10
2019-05-21T05:24:42.139Z,99.00
2019-05-21T05:27:10.963Z,99.10
2019-05-21T05:29:41.035Z,99.10
2019-05-21T05:32:07.498Z,99.10
2019-05-21T05:34:33.736Z,99.20
2019-05-21T05:36:59.998Z,99.10
2019-05-21T05:39:26.281Z,99.20
2019-05-21T05:41:52.540Z,99.20
2019-05-21T05:44:19.041Z,99.10
2019-05-21T05:46:45.292Z,99.00
2019-05-21T05:49:16.356Z,99.00
2019-05-21T05:51:42.598Z,98.90
2019-05-21T05:54:09.129Z,98.90
2019-05-21T05:56:44.899Z,98.90
2019-05-21T05:59:14.442Z,98.90
2019-05-21T06:01:41.074Z,99.00
2019-05-21T06:04:07.312Z,99.00
2019-05-21T06:06:33.653Z,98.90
2019-05-21T06:09:11.071Z,98.80
2019-05-21T06:11:37.764Z,98.80
2019-05-21T06:14:09.634Z,98.50
2019-05-21T06:16:36.520Z,98.50
2019-05-21T06:19:03.137Z,98.60
2019-05-21T06:21:29.476Z,98.50
2019-05-21T06:23:55.699Z,98.30
2019-05-21T06:26:22.682Z,98.10
2019-05-21T06:28:49.214Z,98.00
2019-05-21T06:31:15.609Z,98.30
2019-05-21T06:33:41.832Z,98.30
2019-05-21T06:36:08.605Z,98.40
2019-05-21T06:38:36.893Z,98.40
2019-05-21T06:41:03.348Z,98.30
2019-05-21T06:43:29.605Z,98.10
2019-05-21T06:46:03.587Z,97.60
2019-05-21T06:48:31.628Z,97.30
2019-05-21T06:50:57.944Z,97.00
2019-05-21T06:53:24.179Z,97.10
2019-05-21T06:55:50.445Z,97.10
2019-05-21T06:58:25.840Z,97.20
2019-05-21T07:00:52.542Z,96.90
2019-05-21T07:03:19.351Z,96.70
2019-05-21T07:05:58.273Z,96.40
2019-05-21T07:08:13.862Z,96.40
2019-05-21T07:10:40.239Z,96.20
2019-05-21T07:13:06.512Z,96.30
2019-05-21T07:15:32.735Z,96.20
2019-05-21T07:17:59.138Z,96.20
2019-05-21T07:20:25.524Z,96.40
2019-05-21T07:22:51.892Z,96.40
2019-05-21T07:25:18.516Z,96.20
2019-05-21T07:27:44.744Z,96.00
2019-05-21T07:30:11.271Z,96.10
2019-05-21T07:32:37.594Z,96.30
2019-05-21T07:35:06.446Z,96.20
2019-05-21T07:37:33.027Z,96.40
2019-05-21T07:39:59.284Z,96.50
2019-05-21T07:42:25.516Z,96.40
2019-05-21T07:44:51.789Z,96.30
2019-05-21T07:47:18.003Z,96.20
2019-05-21T07:49:44.243Z,96.50
2019-05-21T07:52:10.482Z,96.20
2019-05-21T07:54:36.758Z,96.10
2019-05-21T07:57:03.141Z,95.80
2019-05-21T07:59:29.354Z,95.70
2019-05-21T08:01:55.619Z,95.60
2019-05-21T08:04:21.867Z,95.80
2019-05-21T08:06:48.107Z,95.70
2019-05-21T08:09:15.144Z,95.80
2019-05-21T08:11:41.802Z,95.70
2019-05-21T08:14:15.241Z,95.90
2019-05-21T08:16:42.134Z,95.90
2019-05-21T08:19:08.464Z,95.70
2019-05-21T08:21:34.693Z,95.40
2019-05-21T08:24:00.910Z,95.70
2019-05-21T08:26:27.160Z,95.90
2019-05-21T08:28:53.467Z,95.60
2019-05-21T08:31:19.731Z,95.50
2019-05-21T08:33:45.977Z,95.60
2019-05-21T08:36:12.272Z,95.60
2019-05-21T08:38:38.525Z,95.70
2019-05-21T08:41:04.942Z,95.90
2019-05-21T08:43:40.956Z,95.80
2019-05-21T08:46:08.905Z,95.50
2019-05-21T08:48:35.153Z,95.50
2019-05-21T08:51:01.532Z,95.40
2019-05-21T08:53:27.798Z,95.40
2019-05-21T08:55:54.042Z,95.40
2019-05-21T08:58:20.484Z,95.50
2019-05-21T09:00:46.902Z,95.60
2019-05-21T09:03:17.464Z,95.70
2019-05-21T09:05:55.442Z,95.60
2019-05-21T09:08:23.311Z,95.70
2019-05-21T09:10:49.602Z,95.70
2019-05-21T09:13:17.957Z,95.80
2019-05-21T09:15:44.314Z,95.70
2019-05-21T09:18:10.659Z,95.90
2019-05-21T09:20:38.304Z,96.10
2019-05-21T09:23:04.754Z,95.90
2019-05-21T09:25:30.991Z,95.30
2019-05-21T09:27:57.331Z,95.50
2019-05-21T09:30:23.655Z,95.70
2019-05-21T09:32:49.918Z,95.90
2019-05-21T09:35:16.929Z,95.80
2019-05-21T09:37:43.291Z,95.70
2019-05-21T09:40:11.966Z,95.40
2019-05-21T09:42:38.284Z,95.00
2019-05-21T09:45:07.396Z,94.60
2019-05-21T09:47:34.084Z,94.40
2019-05-21T09:50:00.635Z,94.50
2019-05-21T09:52:26.986Z,94.50
2019-05-21T09:54:53.291Z,94.50
2019-05-21T09:57:25.006Z,94.40
2019-05-21T09:59:53.157Z,94.40
2019-05-21T10:02:27.062Z,94.10
2019-05-21T10:04:59.643Z,93.80
2019-05-21T10:07:39.245Z,93.10
2019-05-21T10:09:55.222Z,92.90
2019-05-21T10:12:25.888Z,92.80
2019-05-21T10:14:52.440Z,92.70
2019-05-21T10:17:19.341Z,92.20
2019-05-21T10:19:46.247Z,92.30
2019-05-21T10:22:12.538Z,92.30
2019-05-21T10:24:38.852Z,92.20
2019-05-21T10:27:05.253Z,91.80
2019-05-21T10:29:31.503Z,91.80
2019-05-21T10:31:57.872Z,91.50
2019-05-21T10:34:40.725Z,91.70
2019-05-21T10:37:07.875Z,91.70
2019-05-21T10:39:34.228Z,91.70
2019-05-21T10:42:00.486Z,91.30
2019-05-21T10:44:26.758Z,91.30
2019-05-21T10:46:53.320Z,91.10
2019-05-21T10:49:19.532Z,91.50
2019-05-21T10:51:46.659Z,91.70
2019-05-21T10:54:15.124Z,91.80
2019-05-21T10:56:47.908Z,91.30
2019-05-21T10:59:11.343Z,91.00
2019-05-21T11:01:59.013Z,91.10
2019-05-21T11:04:28.628Z,91.10
2019-05-21T11:06:54.879Z,90.60
2019-05-21T11:09:22.384Z,90.80
2019-05-21T11:11:49.176Z,90.50
2019-05-21T11:14:15.635Z,90.10
2019-05-21T11:16:45.361Z,90.40
2019-05-21T11:19:12.305Z,90.30
2019-05-21T11:21:38.536Z,90.10
2019-05-21T11:24:04.919Z,90.30
2019-05-21T11:26:31.128Z,90.00
2019-05-21T11:28:57.355Z,89.00
2019-05-21T11:31:23.570Z,88.60
2019-05-21T11:33:50.061Z,89.10
2019-05-21T11:36:16.284Z,89.10
2019-05-21T11:38:42.540Z,87.10
2019-05-21T11:41:08.795Z,87.60
2019-05-21T11:43:35.004Z,87.30
2019-05-21T11:46:03.096Z,88.10
2019-05-21T11:48:29.472Z,88.40
2019-05-21T11:50:55.736Z,88.50
2019-05-21T11:53:21.974Z,88.30
2019-05-21T11:55:48.211Z,87.90
2019-05-21T11:58:14.452Z,87.60
2019-05-21T12:00:40.885Z,87.30
2019-05-21T12:03:07.135Z,88.00
2019-05-21T12:05:33.390Z,88.10
2019-05-21T12:07:59.679Z,88.70
2019-05-21T12:10:34.487Z,87.90
2019-05-21T12:13:01.927Z,87.40
2019-05-21T12:15:28.251Z,87.70
2019-05-21T12:17:54.554Z,87.60
2019-05-21T12:20:35.260Z,87.90
2019-05-21T12:22:49.834Z,88.60
2019-05-21T12:25:16.263Z,89.20
2019-05-21T12:27:42.494Z,89.20
2019-05-21T12:30:09.439Z,87.70
2019-05-21T12:32:35.889Z,88.00
2019-05-21T12:35:03.525Z,88.60
2019-05-21T12:37:29.774Z,88.70
2019-05-21T12:40:00.932Z,89.00
2019-05-21T12:42:27.943Z,89.30
2019-05-21T12:44:54.172Z,89.50
2019-05-21T12:47:20.495Z,89.70
2019-05-21T12:49:46.781Z,90.00
2019-05-21T12:52:13.031Z,90.00
2019-05-21T12:54:39.274Z,90.30
2019-05-21T12:57:05.504Z,90.60
2019-05-21T12:59:31.797Z,90.60
2019-05-21T13:01:58.067Z,90.60
2019-05-21T13:04:24.299Z,90.20
2019-05-21T13:06:51.009Z,90.40
2019-05-21T13:09:31.476Z,90.50
2019-05-21T13:11:45.441Z,90.60
2019-05-21T13:14:16.134Z,90.70
2019-05-21T13:16:39.855Z,90.50
2019-05-21T13:19:11.024Z,90.50
2019-05-21T13:21:34.881Z,90.40
2019-05-21T13:24:01.066Z,90.40
2019-05-21T13:26:27.436Z,90.40
2019-05-21T13:29:00.847Z,90.40
2019-05-21T13:31:34.531Z,90.70
2019-05-21T13:34:02.016Z,91.00
2019-05-21T13:36:28.293Z,91.00
2019-05-21T13:39:04.891Z,91.00
2019-05-21T13:41:31.651Z,91.10
2019-05-21T13:43:57.900Z,91.10
2019-05-21T13:46:24.478Z,91.40
2019-05-21T13:48:50.779Z,91.50
2019-05-21T13:51:17.260Z,91.70
2019-05-21T13:53:43.541Z,92.00
2019-05-21T13:56:09.881Z,92.20
2019-05-21T13:58:36.130Z,92.30
2019-05-21T14:01:03.369Z,92.40
2019-05-21T14:03:29.711Z,92.40
2019-05-21T14:05:56.062Z,92.50
2019-05-21T14:08:22.342Z,92.40
2019-05-21T14:10:48.592Z,92.60
2019-05-21T14:13:15.026Z,92.80
2019-05-21T14:15:41.812Z,93.10
2019-05-21T14:18:08.147Z,93.10
2019-05-21T14:20:34.485Z,93.30
2019-05-21T14:23:00.787Z,93.50
2019-05-21T14:25:27.260Z,93.60
2019-05-21T14:27:55.382Z,93.50
2019-05-21T14:30:21.919Z,93.70
2019-05-21T14:32:48.210Z,94.20
2019-05-21T14:35:14.535Z,93.90
2019-05-21T14:37:45.130Z,94.10
2019-05-21T14:40:28.476Z,94.20
2019-05-21T14:42:56.923Z,94.00
2019-05-21T14:45:09.526Z,94.00
2019-05-21T14:47:35.776Z,94.10
2019-05-21T14:50:05.612Z,94.20
2019-05-21T14:52:31.940Z,94.30
2019-05-21T14:54:58.202Z,94.20
2019-05-21T14:57:24.435Z,94.50
2019-05-21T14:59:50.783Z,94.90
2019-05-21T15:02:22.474Z,94.90
2019-05-21T15:04:48.925Z,94.90
2019-05-21T15:07:15.268Z,94.90
2019-05-21T15:09:41.513Z,95.00
2019-05-21T15:12:07.733Z,94.70
2019-05-21T15:14:33.966Z,94.70
2019-05-21T15:17:00.241Z,94.90
2019-05-21T15:19:41.866Z,94.90
2019-05-21T15:22:08.259Z,94.90
2019-05-21T15:24:34.530Z,95.20
2019-05-21T15:27:00.808Z,95.30
2019-05-21T15:29:27.059Z,95.20
2019-05-21T15:31:53.287Z,95.20
2019-05-21T15:34:19.558Z,95.20
2019-05-21T15:36:45.785Z,95.30
2019-05-21T15:39:12.014Z,95.30
2019-05-21T15:41:38.248Z,95.40
2019-05-21T15:44:04.569Z,95.50
2019-05-21T15:46:47.177Z,95.60
2019-05-21T15:48:59.954Z,95.30
2019-05-21T15:51:26.232Z,95.60
2019-05-21T15:53:52.471Z,95.20
2019-05-21T15:56:19.082Z,95.20
2019-05-21T15:58:45.321Z,95.30
2019-05-21T16:01:12.426Z,95.40
2019-05-21T16:03:38.759Z,95.50
2019-05-21T16:06:05.073Z,95.70
2019-05-21T16:08:31.413Z,95.80
2019-05-21T16:10:57.601Z,95.90
2019-05-21T16:13:23.964Z,95.90
2019-05-21T16:15:50.181Z,96.30
2019-05-21T16:18:16.411Z,96.20
2019-05-21T16:20:43.021Z,96.10
2019-05-21T16:23:09.281Z,96.20
2019-05-21T16:25:36.505Z,96.30
2019-05-21T16:28:02.827Z,96.30
2019-05-21T16:30:29.066Z,96.20
2019-05-21T16:32:55.515Z,96.50
2019-05-21T16:35:22.110Z,96.40
2019-05-21T16:37:48.290Z,96.60
2019-05-21T16:40:15.343Z,96.70
2019-05-21T16:42:41.618Z,97.20
2019-05-21T16:45:09.065Z,97.30
2019-05-21T16:47:45.879Z,97.40
2019-05-21T16:50:06.389Z,97.50
2019-05-21T16:52:32.635Z,97.60
2019-05-21T16:54:58.878Z,97.60
2019-05-21T16:57:25.139Z,97.60
2019-05-21T16:59:51.575Z,97.70
2019-05-21T17:02:18.127Z,97.80
2019-05-21T17:04:44.341Z,97.80
2019-05-21T17:07:10.721Z,97.80
2019-05-21T17:09:36.989Z,97.90
2019-05-21T17:12:04.121Z,97.80
2019-05-21T17:14:30.347Z,97.80
2019-05-21T17:16:56.611Z,97.90
2019-05-21T17:19:23.207Z,97.90
2019-05-21T17:21:49.528Z,97.90
2019-05-21T17:24:15.774Z,97.90
2019-05-21T17:26:42.955Z,98.10
2019-05-21T17:29:09.586Z,98.10
2019-05-21T17:31:35.917Z,98.10
2019-05-21T17:34:02.404Z,98.20
2019-05-21T17:36:28.648Z,98.50
2019-05-21T17:38:54.925Z,98.30
2019-05-21T17:41:21.193Z,98.30
2019-05-21T17:43:47.454Z,98.30
2019-05-21T17:46:13.675Z,98.40
2019-05-21T17:48:39.903Z,98.30
2019-05-21T17:51:09.060Z,98.30
2019-05-21T17:53:34.323Z,98.40
2019-05-21T17:56:01.276Z,98.30
2019-05-21T17:58:27.622Z,98.30
2019-05-21T18:00:55.852Z,98.40
2019-05-21T18:03:22.486Z,98.50
2019-05-21T18:05:49.442Z,98.50
2019-05-21T18:08:41.295Z,98.50
2019-05-21T18:11:08.095Z,98.50
2019-05-21T18:13:35.171Z,98.50
2019-05-21T18:16:01.806Z,98.60
2019-05-21T18:18:29.055Z,98.60
2019-05-21T18:24:50.244Z,98.60
2019-05-21T18:27:17.030Z,98.60
2019-05-21T18:29:43.971Z,98.70
2019-05-21T18:32:11.472Z,98.80
2019-05-21T18:34:39.277Z,98.80
2019-05-21T18:37:06.571Z,98.90
2019-05-21T18:39:35.791Z,98.90
2019-05-21T18:42:04.136Z,98.90
2019-05-21T18:44:32.533Z,98.90
2019-05-21T18:47:05.667Z,98.90
2019-05-21T18:49:33.575Z,98.80
2019-05-21T18:52:01.452Z,98.80
2019-05-21T18:54:29.418Z,98.80
2019-05-21T18:56:57.185Z,98.90
2019-05-21T18:59:25.168Z,98.90
2019-05-21T19:02:45.685Z,98.90
2019-05-21T19:05:14.462Z,98.90
2019-05-21T19:07:42.454Z,98.80
2019-05-21T19:10:13.607Z,98.90
2019-05-21T19:12:41.687Z,98.90
2019-05-21T19:15:10.401Z,98.80
2019-05-21T19:17:38.654Z,98.80
2019-05-21T19:20:10.731Z,98.80
2019-05-21T19:22:38.680Z,98.90
2019-05-21T19:25:08.003Z,99.00
2019-05-21T19:27:35.868Z,98.90
2019-05-21T19:30:06.274Z,98.90
2019-05-21T19:32:36.034Z,98.90
2019-05-21T19:35:06.166Z,98.90
2019-05-21T19:37:35.521Z,98.90
2019-05-21T19:40:06.026Z,99.00
2019-05-21T19:42:34.068Z,98.80
2019-05-21T19:45:02.537Z,98.90
2019-05-21T19:47:30.469Z,98.90
2019-05-21T19:49:59.061Z,98.90
2019-05-21T19:52:27.609Z,98.90
2019-05-21T19:54:55.576Z,98.80
2019-05-21T19:57:25.334Z,98.90
2019-05-21T19:59:53.672Z,98.90
2019-05-21T20:02:22.331Z,98.90
2019-05-21T20:04:50.803Z,99.00
2019-05-21T20:07:20.790Z,98.90
2019-05-21T20:09:51.120Z,99.00
2019-05-21T20:12:19.048Z,99.00
2019-05-21T20:14:46.702Z,99.10
2019-05-21T20:17:15.335Z,99.20
2019-05-21T20:19:45.996Z,99.20
2019-05-21T20:22:15.203Z,99.20
2019-05-21T20:24:42.674Z,99.10
2019-05-21T20:27:11.540Z,99.20
2019-05-21T20:29:38.274Z,99.30
2019-05-21T20:32:06.443Z,99.30
2019-05-21T20:34:33.138Z,99.30
2019-05-21T20:36:59.887Z,99.30
2019-05-21T20:39:26.352Z,99.30
2019-05-21T20:41:53.120Z,99.30
2019-05-21T20:44:19.421Z,99.20
2019-05-21T20:46:46.084Z,99.20
2019-05-21T20:49:12.534Z,99.30
2019-05-21T20:51:39.904Z,99.30
2019-05-21T20:54:07.521Z,99.30
2019-05-21T20:56:34.208Z,99.30
2019-05-21T20:59:00.545Z,99.20
2019-05-21T21:01:27.051Z,99.30
2019-05-21T21:03:53.263Z,99.20
2019-05-21T21:06:34.279Z,99.30
2019-05-21T21:08:48.214Z,99.60
2019-05-21T21:11:14.729Z,99.20
2019-05-21T21:13:42.051Z,99.10
2019-05-21T21:16:09.779Z,99.20
2019-05-21T21:18:37.275Z,99.20
2019-05-21T21:21:04.368Z,99.20
2019-05-21T21:23:32.185Z,99.20
2019-05-21T21:26:00.299Z,99.20
2019-05-21T21:28:27.745Z,99.10
2019-05-21T21:30:57.545Z,99.10
2019-05-21T21:33:24.153Z,99.00
2019-05-21T21:35:50.545Z,99.00
2019-05-21T21:38:18.707Z,99.00
2019-05-21T21:40:45.156Z,98.90
2019-05-21T21:43:11.823Z,99.00
2019-05-21T21:45:38.060Z,99.10
2019-05-21T21:48:05.076Z,99.10
2019-05-21T21:50:32.704Z,99.10
2019-05-21T21:52:58.981Z,99.20
2019-05-21T21:55:25.647Z,99.10
2019-05-21T21:57:51.894Z,99.10
2019-05-21T22:00:40.335Z,99.10
2019-05-21T22:03:10.451Z,99.10
2019-05-21T22:05:37.069Z,99.20
2019-05-21T22:08:04.280Z,99.20
2019-05-21T22:10:30.916Z,99.20
2019-05-21T22:12:57.687Z,99.30
2019-05-21T22:15:24.019Z,99.30
2019-05-21T22:17:50.500Z,99.30
2019-05-21T22:20:17.915Z,99.40
2019-05-21T22:22:44.220Z,99.30
2019-05-21T22:25:11.726Z,99.40
2019-05-21T22:27:38.947Z,99.40
2019-05-21T22:30:06.304Z,99.40
2019-05-21T22:32:32.779Z,99.40
2019-05-21T22:34:59.254Z,99.30
2019-05-21T22:37:25.697Z,99.20
2019-05-21T22:39:52.010Z,99.30
2019-05-21T22:42:18.583Z,99.30
2019-05-21T22:44:46.222Z,99.30
2019-05-21T22:47:13.498Z,99.40
2019-05-21T22:49:39.843Z,99.40
2019-05-21T22:52:06.172Z,99.50
2019-05-21T22:54:32.406Z,99.50
2019-05-21T22:56:58.855Z,99.40
2019-05-21T22:59:25.308Z,99.70
2019-05-21T23:01:53.862Z,99.50
2019-05-21T23:04:20.498Z,99.50
2019-05-21T23:06:46.819Z,99.50
2019-05-21T23:09:13.078Z,99.30
2019-05-21T23:11:39.338Z,99.30
2019-05-21T23:14:05.842Z,99.30
2019-05-21T23:16:32.796Z,99.40
2019-05-21T23:18:59.247Z,99.30
2019-05-21T23:21:25.802Z,99.40
2019-05-21T23:23:52.871Z,99.50
2019-05-21T23:26:19.776Z,99.40
2019-05-21T23:28:46.436Z,99.40
2019-05-21T23:31:14.174Z,99.50
2019-05-21T23:33:41.536Z,99.50
2019-05-21T23:36:08.080Z,99.50
2019-05-21T23:38:35.809Z,99.40
2019-05-21T23:41:03.929Z,99.40
2019-05-21T23:43:31.075Z,99.40
2019-05-21T23:45:57.812Z,99.40
2019-05-21T23:48:24.259Z,99.40
2019-05-21T23:50:51.353Z,99.40
2019-05-21T23:53:17.796Z,99.40
